Flights from Tuesday August 25, 2026

The table below shows the detailed information of all trackers on Tuesday Aug 25, 2026.

Ident Type CommentCommentDate
Jogger JA0GUM-A Jogger Jogger / Tue, 25 Aug 2026 08:54:55 +0900 25/8/2026 8:54 am
Jogger JA0KEK-B Jogger Jogger / Tue, 25 Aug 2026 22:45:00 +0900 25/8/2026 10:45 pm
Jogger JG1JZL-7 Jogger Jogger TXC:1 Temp: 30.39F Humid:66.88% Batt: 3.9V Tue, 25 Aug 2026 09:00:50 +0900 25/8/2026 9:00 am
Jogger JQ3KPB Jogger Jogger / Tue, 25 Aug 2026 23:08:31 +0900 25/8/2026 11:08 pm
Jogger JK1MVU-D Jogger Jogger PHG2000/NIIGATA JCC#080103 Tue, 25 Aug 2026 23:10:00 +0900 25/8/2026 11:10 pm
Jogger JR2UGN Jogger Jogger д?? ???ϼ Tue, 25 Aug 2026 09:25:00 +0900 25/8/2026 9:25 am
Jogger JS6CQW-5 Jogger Jogger https://aprsdroid.org/ Tue, 25 Aug 2026 09:28:15 +0900 25/8/2026 9:28 am
Jogger JA9MJR-5 Jogger Jogger aprs.fi for iOS!wej! Tue, 25 Aug 2026 09:28:41 +0900 25/8/2026 9:28 am
Jogger JR6TWS Jogger Jogger / Tue, 25 Aug 2026 09:31:51 +0900 25/8/2026 9:31 am
Jogger JL3YRP Jogger Jogger / Tue, 25 Aug 2026 09:33:21 +0900 25/8/2026 9:33 am
Jogger JN3NZW-H Jogger Jogger Rig:ID-52 Ant.Power:5W Tue, 25 Aug 2026 09:37:00 +0900 25/8/2026 9:37 am
Jogger JG1GRT-A Jogger Jogger Tue, 25 Aug 2026 09:44:00 +0900 25/8/2026 9:44 am
Jogger JA0KEK-B Jogger Jogger Tue, 25 Aug 2026 09:45:00 +0900 25/8/2026 9:45 am
Jogger JR2UGN Jogger Jogger д?? ???ϼ Tue, 25 Aug 2026 10:19:00 +0900 25/8/2026 10:19 am
Jogger JA1DRE-A Jogger Jogger D-STAR & 439.64 JR1WM Tue, 25 Aug 2026 10:50:00 +0900 25/8/2026 10:50 am
Jogger JH5DAH-A Jogger Jogger /ID31 A Tue, 25 Aug 2026 10:53:58 +0900 25/8/2026 10:53 am
Jogger JS6CQW-5 Jogger Jogger https://aprsdroid.org/ Tue, 25 Aug 2026 10:57:38 +0900 25/8/2026 10:57 am
Jogger JA0KEK-B Jogger Jogger Tue, 25 Aug 2026 11:07:00 +0900 25/8/2026 11:07 am
Jogger JF1HCV Jogger Jogger / Tue, 25 Aug 2026 11:13:13 +0900 25/8/2026 11:13 am
Jogger JJ4JIR-A Jogger Jogger IWAMOTO D-PRS 438.010MHz Tue, 25 Aug 2026 11:16:00 +0900 25/8/2026 11:16 am
Jogger JH4MSA-5 Jogger Jogger ID-51 JH4MSA Tue, 25 Aug 2026 11:28:00 +0900 25/8/2026 11:28 am
Jogger JS6CQW-5 Jogger Jogger https://aprsdroid.org/ Tue, 25 Aug 2026 11:35:33 +0900 25/8/2026 11:35 am
Jogger JJ4JIR-A Jogger Jogger IWAMOTO D-PRS 438.010MHz Tue, 25 Aug 2026 11:53:00 +0900 25/8/2026 11:53 am
Jogger JA0KEK-B Jogger Jogger Tue, 25 Aug 2026 11:54:00 +0900 25/8/2026 11:54 am
Jogger JK1BCD-C Jogger Jogger ??ϲ? ??޳! OP ???? Tue, 25 Aug 2026 11:54:00 +0900 25/8/2026 11:54 am